Time;durP1;ratioP1;P1;durP2;ratioP2;P2;SDS_P1;SDS_P2;PMS_P1;PMS_P2;Temp;Humidity;BMP_temperature;BMP_pressure;BME280_temperature;BME280_humidity;BME280_pressure;Samples;Min_cycle;Max_cycle;Signal;HPM_P1;HPM_P2
2021/08/24 00:01:18;;;;;;;12.23;7.40;;;;;;;18.41;57.42;100014.88;1658105;86;21759;-78
2021/08/24 00:03:44;;;;;;;8.40;6.40;;;;;;;18.37;57.72;100022.80;1660327;85;20996;-78
2021/08/24 00:06:11;;;;;;;12.65;7.22;;;;;;;18.36;57.73;100020.39;1663093;85;20992;-78
2021/08/24 00:08:41;;;;;;;13.20;10.00;;;;;;;18.36;57.83;100021.20;1659688;85;21004;-78
2021/08/24 00:11:09;;;;;;;9.15;7.12;;;;;;;18.35;57.80;100016.85;1659542;86;21009;-78
2021/08/24 00:13:36;;;;;;;11.83;7.12;;;;;;;18.36;57.71;100017.67;1659723;86;21012;-76
2021/08/24 00:16:03;;;;;;;12.65;7.60;;;;;;;18.35;57.67;100020.13;1661298;86;21442;-76
2021/08/24 00:18:31;;;;;;;11.73;7.30;;;;;;;18.33;57.74;100019.59;1664506;86;21032;-78
2021/08/24 00:20:58;;;;;;;13.18;8.10;;;;;;;18.32;57.83;100018.78;1664241;86;20956;-78
2021/08/24 00:23:26;;;;;;;10.53;8.55;;;;;;;18.29;57.98;100018.02;1664574;85;20999;-83
2021/08/24 00:25:53;;;;;;;10.65;8.75;;;;;;;18.25;58.10;100012.36;1644541;86;21071;-82
2021/08/24 00:28:20;;;;;;;11.80;7.65;;;;;;;18.21;58.24;100020.85;1663098;86;21067;-83
2021/08/24 00:30:46;;;;;;;10.98;7.87;;;;;;;18.19;58.41;100018.14;1661783;85;21529;-83
2021/08/24 00:33:13;;;;;;;14.53;8.23;;;;;;;18.16;58.47;100019.55;1642592;86;21063;-84
2021/08/24 00:35:41;;;;;;;15.20;8.88;;;;;;;18.17;58.48;100015.73;1662560;86;21168;-82
2021/08/24 00:38:09;;;;;;;16.45;7.58;;;;;;;18.19;58.41;100018.14;1661911;86;21063;-84
2021/08/24 00:40:36;;;;;;;11.68;7.90;;;;;;;18.19;58.30;100003.98;1661608;85;21506;-82
2021/08/24 00:43:03;;;;;;;17.37;7.85;;;;;;;18.20;58.31;100004.80;1661607;86;21556;-81
2021/08/24 00:45:30;;;;;;;12.07;7.97;;;;;;;18.15;58.36;100008.94;1640419;85;21027;-82
2021/08/24 00:47:56;;;;;;;13.40;8.23;;;;;;;18.11;58.32;100012.00;1619196;86;21047;-81
2021/08/24 00:50:37;;;;;;;13.45;8.68;;;;;;;18.11;58.33;100010.09;1661880;86;20961;-83
2021/08/24 00:53:14;;;;;;;8.98;7.53;;;;;;;18.14;58.29;100011.41;1661406;85;21517;-86
2021/08/24 00:55:42;;;;;;;11.95;8.23;;;;;;;18.14;58.26;100001.88;1640244;86;21122;-81
2021/08/24 00:58:10;;;;;;;9.75;7.45;;;;;;;18.16;58.22;100010.02;1661557;85;21012;-81
2021/08/24 01:00:38;;;;;;;13.90;8.35;;;;;;;18.17;58.27;100006.75;1640844;86;21584;-79
2021/08/24 01:03:13;;;;;;;12.37;8.98;;;;;;;18.19;58.26;100004.53;1661266;86;20995;-72
2021/08/24 01:05:42;;;;;;;12.55;8.18;;;;;;;18.16;58.48;100010.02;1657715;86;21001;-73
2021/08/24 01:08:36;;;;;;;13.80;8.83;;;;;;;18.14;58.56;100006.77;1662509;86;21021;-72
2021/08/24 01:11:34;;;;;;;10.72;8.48;;;;;;;18.17;58.55;100012.20;1676650;85;21537;-73
2021/08/24 01:14:24;;;;;;;20.80;10.55;;;;;;;18.18;58.60;100011.89;1673674;85;21854;-72
2021/08/24 01:17:08;;;;;;;8.88;7.92;;;;;;;18.19;58.58;100003.98;1640124;86;21033;-70
2021/08/24 01:20:02;;;;;;;11.12;8.80;;;;;;;18.21;58.51;100008.59;1655899;86;20976;-72
2021/08/24 01:23:07;;;;;;;11.28;9.08;;;;;;;18.19;58.70;100003.17;1661243;86;21592;-75
2021/08/24 01:25:48;;;;;;;14.35;8.85;;;;;;;18.13;59.09;100005.14;1634481;85;21080;-77
2021/08/24 01:28:29;;;;;;;13.90;8.75;;;;;;;18.05;59.31;99996.27;1635905;87;21080;-75
2021/08/24 01:31:32;;;;;;;10.82;8.10;;;;;;;18.06;59.37;99998.45;1635446;87;21552;-75
2021/08/24 01:34:31;;;;;;;13.95;9.73;;;;;;;18.04;59.41;99993.28;1639945;86;20967;-74
2021/08/24 01:37:11;;;;;;;11.48;8.63;;;;;;;18.04;59.26;99993.28;1653461;86;21036;-72
2021/08/24 01:39:48;;;;;;;13.25;8.90;;;;;;;18.06;59.13;99985.65;1653348;86;21577;-71
2021/08/24 01:42:21;;;;;;;13.43;8.55;;;;;;;18.09;59.03;99986.97;1653111;85;40297;-70
2021/08/24 01:45:13;;;;;;;12.93;8.08;;;;;;;18.10;58.99;99992.13;1631487;86;21490;-78
2021/08/24 01:47:53;;;;;;;18.95;8.43;;;;;;;18.10;59.21;99981.78;1626343;87;21109;-76
2021/08/24 01:50:31;;;;;;;11.43;7.87;;;;;;;18.03;59.51;99980.80;1626929;87;21076;-75
2021/08/24 01:53:20;;;;;;;10.23;8.00;;;;;;;17.94;59.78;99981.73;1649283;86;21048;-73
2021/08/24 01:55:58;;;;;;;9.40;6.87;;;;;;;17.92;59.82;99983.38;1605542;88;21214;-75
2021/08/24 01:58:52;;;;;;;11.43;7.92;;;;;;;17.92;59.87;99972.50;1641287;86;21032;-74
2021/08/24 02:01:22;;;;;;;14.95;8.70;;;;;;;17.89;59.99;99974.42;1653418;86;21505;-75
2021/08/24 02:03:52;;;;;;;12.88;9.38;;;;;;;17.91;60.01;99970.87;1632086;86;21040;-75
2021/08/24 02:06:32;;;;;;;12.98;8.78;;;;;;;17.92;60.12;99975.22;1630954;86;20964;-75
2021/08/24 02:09:03;;;;;;;11.90;8.58;;;;;;;17.96;60.12;99972.16;1645144;86;21119;-75
2021/08/24 02:11:31;;;;;;;14.10;8.88;;;;;;;18.09;60.15;99962.47;1615177;86;24467;-75
2021/08/24 02:14:00;;;;;;;14.10;8.60;;;;;;;18.28;59.94;99967.38;1607228;88;21063;-74
2021/08/24 02:16:28;;;;;;;18.92;8.78;;;;;;;18.48;59.26;99967.64;1626818;87;21016;-76
2021/08/24 02:19:02;;;;;;;12.70;8.05;;;;;;;18.52;59.00;99964.58;1614376;87;21014;-75
2021/08/24 02:21:46;;;;;;;15.70;9.03;;;;;;;18.57;58.98;99959.08;1615873;87;21860;-75
2021/08/24 02:24:15;;;;;;;16.00;9.13;;;;;;;18.64;58.74;99960.89;1638545;87;24856;-75
2021/08/24 02:26:41;;;;;;;17.02;9.03;;;;;;;18.60;58.60;99956.59;1603331;87;21115;-74
2021/08/24 02:29:07;;;;;;;12.07;8.88;;;;;;;18.62;58.61;99955.73;1607080;87;21010;-75
2021/08/24 02:31:43;;;;;;;13.15;8.95;;;;;;;18.65;58.58;99949.70;1614741;87;21047;-75
2021/08/24 02:34:20;;;;;;;19.37;9.38;;;;;;;18.69;58.55;99952.64;1643063;87;21034;-75
2021/08/24 02:36:58;;;;;;;17.48;8.98;;;;;;;18.69;58.48;99952.09;1647184;87;21011;-75
2021/08/24 02:39:30;;;;;;;18.95;9.40;;;;;;;18.66;58.60;99946.41;1616146;87;21560;-75
2021/08/24 02:42:01;;;;;;;20.25;8.83;;;;;;;18.61;58.76;99945.93;1647263;87;21514;-74
2021/08/24 02:44:39;;;;;;;24.05;11.35;;;;;;;18.63;58.77;99953.27;1644091;87;20999;-74
2021/08/24 02:47:05;;;;;;;20.65;10.85;;;;;;;18.61;58.76;99951.38;1647258;85;21031;-75
2021/08/24 02:49:31;;;;;;;22.67;8.15;;;;;;;18.60;58.92;99951.70;1647674;86;21103;-75
2021/08/24 02:52:00;;;;;;;27.42;10.50;;;;;;;18.58;59.01;99953.34;1647668;87;21648;-76
2021/08/24 02:54:33;;;;;;;14.85;9.78;;;;;;;18.53;59.13;99946.61;1646904;85;21031;-77
2021/08/24 02:57:01;;;;;;;27.62;9.40;;;;;;;18.55;59.24;99950.41;1647319;87;21050;-76
2021/08/24 02:59:29;;;;;;;24.07;9.80;;;;;;;18.50;59.46;99954.00;1647688;87;21536;-75
2021/08/24 03:01:55;;;;;;;21.00;10.15;;;;;;;18.44;59.61;99944.27;1646749;87;21030;-76
2021/08/24 03:04:21;;;;;;;22.32;9.38;;;;;;;18.46;59.72;99944.80;1647643;87;21054;-74
2021/08/24 03:06:55;;;;;;;22.45;9.40;;;;;;;18.47;59.81;99942.86;1623339;86;21050;-74
2021/08/24 03:09:23;;;;;;;28.35;9.73;;;;;;;18.41;59.97;99943.52;1647974;87;21115;-74
2021/08/24 03:12:05;;;;;;;19.55;9.15;;;;;;;18.41;60.14;99946.78;1647475;87;21982;-74
2021/08/24 03:14:37;;;;;;;25.40;9.55;;;;;;;18.40;60.25;99947.34;1604743;87;21008;-75
2021/08/24 03:17:11;;;;;;;23.02;9.98;;;;;;;18.41;60.41;99954.41;1624501;86;21062;-75
2021/08/24 03:19:38;;;;;;;23.42;9.90;;;;;;;18.38;60.53;99951.44;1647666;87;21084;-74
2021/08/24 03:22:06;;;;;;;27.13;10.88;;;;;;;18.36;60.62;99950.39;1647372;86;21631;-75
2021/08/24 03:24:33;;;;;;;29.42;10.30;;;;;;;18.36;60.70;99953.13;1647519;87;21962;-74
2021/08/24 03:26:59;;;;;;;47.30;12.30;;;;;;;18.37;60.81;99956.66;1646358;86;20968;-75
2021/08/24 03:29:26;;;;;;;32.93;12.45;;;;;;;18.33;60.88;99951.52;1647544;87;21126;-75
2021/08/24 03:31:54;;;;;;;27.73;9.95;;;;;;;18.32;60.96;99947.98;1646680;87;21097;-74
2021/08/24 03:34:22;;;;;;;13.88;9.68;;;;;;;18.30;61.75;99946.12;1647192;86;21034;-75
2021/08/24 03:36:48;;;;;;;14.98;8.50;;;;;;;18.26;61.50;99936.38;1646639;87;21183;-75
2021/08/24 03:39:15;;;;;;;11.80;8.53;;;;;;;18.18;61.71;99941.09;1645733;87;21000;-76
2021/08/24 03:41:41;;;;;;;15.55;8.80;;;;;;;18.12;61.92;99946.92;1646769;87;21088;-74
2021/08/24 03:44:08;;;;;;;12.90;9.35;;;;;;;18.09;62.09;99946.13;1647045;87;21013;-74
2021/08/24 03:46:34;;;;;;;20.37;10.35;;;;;;;18.08;62.22;99939.87;1618681;87;21062;-75
2021/08/24 03:49:01;;;;;;;22.80;8.98;;;;;;;18.14;62.19;99947.42;1625357;85;21125;-74
2021/08/24 03:51:28;;;;;;;22.48;9.43;;;;;;;18.19;62.14;99948.17;1646740;87;21050;-74
2021/08/24 03:53:54;;;;;;;21.95;9.25;;;;;;;18.24;62.01;99952.19;1646614;87;20979;-74
2021/08/24 03:56:21;;;;;;;19.85;10.48;;;;;;;18.25;62.03;99957.89;1646859;87;20975;-75
2021/08/24 03:58:47;;;;;;;21.33;8.75;;;;;;;18.26;62.07;99959.52;1646535;87;21035;-75
2021/08/24 04:01:17;;;;;;;30.92;12.25;;;;;;;18.25;62.15;99961.98;1647819;86;21560;-75
2021/08/24 04:03:43;;;;;;;17.17;9.30;;;;;;;18.25;62.21;99965.25;1646996;86;21044;-75
2021/08/24 04:06:11;;;;;;;16.65;8.70;;;;;;;18.24;62.28;99963.63;1646298;87;21078;-76
2021/08/24 04:08:37;;;;;;;21.25;9.53;;;;;;;18.27;62.38;99965.20;1646967;87;21074;-75
2021/08/24 04:11:05;;;;;;;32.10;10.75;;;;;;;18.33;62.52;99966.49;1646908;87;21560;-75
2021/08/24 04:13:32;;;;;;;24.80;10.25;;;;;;;18.37;62.65;99968.33;1646774;87;21931;-75
2021/08/24 04:16:07;;;;;;;33.40;10.78;;;;;;;18.40;62.64;99969.67;1619166;87;21551;-75
2021/08/24 04:18:35;;;;;;;21.02;9.30;;;;;;;18.43;62.72;99968.52;1645710;87;21532;-76
2021/08/24 04:21:01;;;;;;;20.27;11.15;;;;;;;18.46;62.85;99970.67;1619885;87;21647;-74
2021/08/24 04:23:27;;;;;;;18.32;11.15;;;;;;;18.50;62.95;99965.44;1647488;86;21047;-75
2021/08/24 04:25:54;;;;;;;17.15;9.18;;;;;;;18.56;62.98;99967.02;1647775;87;21044;-75
2021/08/24 04:28:20;;;;;;;19.52;11.35;;;;;;;18.62;63.09;99969.91;1647092;85;21865;-76
2021/08/24 04:30:47;;;;;;;18.32;9.85;;;;;;;18.63;63.08;99968.25;1642276;85;21528;-75
2021/08/24 04:33:14;;;;;;;15.95;11.18;;;;;;;18.68;63.15;99975.54;1646655;85;21024;-75
2021/08/24 04:35:40;;;;;;;16.70;11.80;;;;;;;18.73;63.21;99973.55;1645815;87;21061;-75
2021/08/24 04:38:06;;;;;;;20.08;11.63;;;;;;;18.77;63.24;99977.84;1649627;87;21561;-74
2021/08/24 04:40:33;;;;;;;17.37;11.33;;;;;;;18.81;63.11;99973.41;1649814;87;21019;-74
2021/08/24 04:43:00;;;;;;;25.48;12.20;;;;;;;18.84;63.11;99976.11;1628269;86;21862;-75
2021/08/24 04:45:26;;;;;;;12.90;10.90;;;;;;;18.89;63.11;99980.94;1661124;86;21526;-74
2021/08/24 04:47:52;;;;;;;18.73;10.82;;;;;;;18.92;63.07;99981.70;1659608;86;21032;-75
2021/08/24 04:50:19;;;;;;;15.55;10.55;;;;;;;18.97;63.28;99984.34;1629863;87;21527;-74
2021/08/24 04:52:46;;;;;;;17.75;12.63;;;;;;;19.01;63.31;99977.17;1624767;87;21082;-74
2021/08/24 04:55:14;;;;;;;19.77;12.07;;;;;;;19.06;63.28;99982.55;1649575;87;20943;-74
2021/08/24 04:57:40;;;;;;;18.98;10.95;;;;;;;19.10;63.26;99976.74;1649672;87;21062;-75
2021/08/24 05:00:08;;;;;;;16.35;10.85;;;;;;;19.14;63.41;99974.22;1625152;87;21456;-75
2021/08/24 05:02:36;;;;;;;24.63;12.20;;;;;;;19.20;63.51;99973.58;1649512;87;21011;-73
2021/08/24 05:05:04;;;;;;;18.07;11.05;;;;;;;19.24;63.56;99974.05;1650285;86;20995;-74
2021/08/24 05:07:30;;;;;;;13.90;10.58;;;;;;;19.28;63.48;99972.33;1649537;87;21562;-75
2021/08/24 05:09:56;;;;;;;20.52;12.53;;;;;;;19.33;63.56;99978.28;1650470;86;21046;-75
2021/08/24 05:12:23;;;;;;;20.68;11.85;;;;;;;19.36;63.64;99972.21;1649618;87;21027;-76
2021/08/24 05:14:51;;;;;;;33.25;13.38;;;;;;;19.36;63.77;99974.39;1649553;87;20979;-75
2021/08/24 05:17:17;;;;;;;20.88;12.58;;;;;;;19.36;63.82;99975.75;1649251;87;20990;-76
2021/08/24 05:19:43;;;;;;;21.73;12.80;;;;;;;19.36;64.05;99979.03;1624951;87;20963;-75
2021/08/24 05:22:09;;;;;;;18.10;11.35;;;;;;;19.35;64.19;99975.48;1649453;87;21014;-75
2021/08/24 05:24:36;;;;;;;15.48;11.75;;;;;;;19.38;64.24;99975.43;1625892;86;21066;-74
2021/08/24 05:27:03;;;;;;;16.37;11.90;;;;;;;19.41;64.34;99974.84;1649520;85;21170;-74
2021/08/24 05:29:31;;;;;;;17.85;12.73;;;;;;;19.44;64.43;99974.27;1649465;87;20930;-75
2021/08/24 05:31:57;;;;;;;19.07;13.15;;;;;;;19.48;64.51;99971.18;1624758;87;20955;-74
2021/08/24 05:34:25;;;;;;;21.42;13.88;;;;;;;19.53;64.60;99966.45;1648797;86;21559;-75
2021/08/24 05:36:51;;;;;;;18.35;12.88;;;;;;;19.59;64.68;99968.52;1646568;87;20981;-76
2021/08/24 05:39:18;;;;;;;20.68;14.90;;;;;;;19.65;64.79;99969.23;1646533;87;21067;-76
2021/08/24 05:41:44;;;;;;;20.52;15.35;;;;;;;19.72;64.67;99968.27;1646466;87;21069;-76
2021/08/24 05:44:10;;;;;;;22.58;14.53;;;;;;;19.80;64.59;99965.66;1646735;87;21567;-75
2021/08/24 05:46:37;;;;;;;18.48;12.28;;;;;;;19.91;64.52;99968.97;1646496;87;21046;-76
2021/08/24 05:49:05;;;;;;;20.05;14.20;;;;;;;19.99;64.48;99970.45;1620547;87;21610;-75
2021/08/24 05:51:32;;;;;;;18.40;14.70;;;;;;;20.06;64.35;99970.02;1642038;87;21630;-75
2021/08/24 05:53:58;;;;;;;15.93;13.20;;;;;;;20.15;64.13;99967.36;1646478;87;21622;-76
2021/08/24 05:56:25;;;;;;;25.77;13.00;;;;;;;20.23;63.92;99972.94;1646888;87;21102;-76
2021/08/24 05:58:52;;;;;;;22.22;15.10;;;;;;;20.25;63.84;99970.69;1646547;87;21018;-75
2021/08/24 06:01:27;;;;;;;19.25;13.10;;;;;;;20.31;63.62;99975.52;1642414;87;21554;-75
2021/08/24 06:03:54;;;;;;;23.83;12.68;;;;;;;20.33;63.49;99974.11;1646558;87;21311;-75
2021/08/24 06:06:23;;;;;;;22.02;12.18;;;;;;;20.34;63.65;99968.06;1646816;87;21325;-76
2021/08/24 06:08:50;;;;;;;18.73;12.13;;;;;;;20.35;63.86;99969.69;1618742;87;21025;-76
2021/08/24 06:11:23;;;;;;;16.07;12.55;;;;;;;20.38;63.84;99967.14;1646741;87;21077;-75
2021/08/24 06:13:51;;;;;;;19.48;14.05;;;;;;;20.43;63.72;99964.88;1646760;87;21096;-76
2021/08/24 06:16:17;;;;;;;15.40;12.98;;;;;;;20.45;63.62;99968.91;1619042;87;21047;-76
2021/08/24 06:18:43;;;;;;;20.82;14.28;;;;;;;20.52;63.54;99977.24;1646517;87;21120;-75
2021/08/24 06:21:11;;;;;;;21.27;13.88;;;;;;;20.62;62.92;99974.28;1646749;87;21107;-76
2021/08/24 06:23:37;;;;;;;23.10;12.73;;;;;;;20.62;62.92;99974.28;1642098;87;21127;-73
2021/08/24 06:26:03;;;;;;;18.87;14.35;;;;;;;20.64;62.39;99963.27;1621074;85;21055;-74
2021/08/24 06:28:32;;;;;;;18.15;13.00;;;;;;;20.65;62.44;99967.62;1633404;87;21292;-73
2021/08/24 06:30:59;;;;;;;20.57;13.98;;;;;;;20.69;62.42;99968.62;1618868;87;21066;-73
2021/08/24 06:33:30;;;;;;;14.60;11.78;;;;;;;20.77;60.92;99968.42;1646801;87;21565;-73
2021/08/24 06:35:56;;;;;;;14.90;10.28;;;;;;;20.77;60.92;99968.42;1641272;87;21087;-73
2021/08/24 06:38:22;;;;;;;16.42;11.73;;;;;;;20.82;60.00;99964.20;1639572;87;21109;-72
2021/08/24 06:40:49;;;;;;;13.95;10.82;;;;;;;20.94;59.62;99970.48;1639576;87;21153;-73
2021/08/24 06:43:16;;;;;;;16.50;10.95;;;;;;;20.96;58.15;99974.52;1639436;85;21071;-73
2021/08/24 06:45:43;;;;;;;17.52;11.80;;;;;;;21.04;58.34;99972.41;1639654;87;21085;-73
2021/08/24 06:48:09;;;;;;;16.15;10.23;;;;;;;21.21;57.50;99963.52;1639522;87;21123;-75
2021/08/24 06:50:37;;;;;;;11.80;9.38;;;;;;;21.21;57.50;99963.52;1639445;87;21044;-75
2021/08/24 06:53:04;;;;;;;13.35;10.03;;;;;;;21.27;56.20;99958.98;1639359;87;21124;-74
2021/08/24 06:55:32;;;;;;;13.35;10.43;;;;;;;21.35;55.57;99965.60;1639411;87;20979;-72
2021/08/24 06:57:59;;;;;;;13.85;9.25;;;;;;;21.45;55.58;99967.26;1639583;87;20992;-73
2021/08/24 07:00:26;;;;;;;12.98;9.45;;;;;;;21.54;55.34;99966.17;1639373;87;21068;-73
2021/08/24 07:02:57;;;;;;;12.60;9.73;;;;;;;21.66;54.78;99962.30;1646090;86;21068;-74
2021/08/24 07:05:24;;;;;;;12.53;10.28;;;;;;;21.75;53.52;99966.42;1616165;87;21081;-82
2021/08/24 07:07:50;;;;;;;10.70;8.30;;;;;;;21.79;52.52;99966.59;1637887;87;21059;-75
2021/08/24 07:10:17;;;;;;;15.05;9.30;;;;;;;21.81;51.48;99972.02;1607180;87;20980;-76
2021/08/24 07:12:43;;;;;;;9.53;7.33;;;;;;;21.85;52.21;99966.70;1629197;87;21110;-75
2021/08/24 07:15:13;;;;;;;12.30;8.70;;;;;;;21.91;52.43;99962.14;1637379;87;21138;-73
2021/08/24 07:17:40;;;;;;;13.53;9.93;;;;;;;22.01;52.30;99964.61;1639851;87;21547;-74
2021/08/24 07:20:10;;;;;;;12.33;9.20;;;;;;;22.09;52.30;99964.38;1641727;86;21044;-74
2021/08/24 07:22:37;;;;;;;17.10;8.70;;;;;;;22.16;51.71;99961.95;1626181;87;21730;-75
2021/08/24 07:25:05;;;;;;;14.23;9.15;;;;;;;22.23;51.05;99966.41;1610147;87;21031;-74
2021/08/24 07:27:32;;;;;;;11.12;7.70;;;;;;;22.27;50.99;99956.98;1609051;87;21003;-77
2021/08/24 07:29:58;;;;;;;11.43;7.62;;;;;;;22.33;51.02;99957.88;1629999;87;21058;-75
2021/08/24 07:32:25;;;;;;;9.00;7.17;;;;;;;22.41;50.86;99956.27;1638533;87;21521;-75
2021/08/24 07:34:51;;;;;;;12.88;6.78;;;;;;;22.49;50.21;99961.74;1617180;87;21615;-75
2021/08/24 07:37:18;;;;;;;10.28;7.45;;;;;;;22.54;49.80;99953.95;1644579;86;21113;-75
2021/08/24 07:39:46;;;;;;;9.30;6.53;;;;;;;22.58;49.43;99951.61;1644402;87;21548;-75
2021/08/24 07:42:12;;;;;;;14.33;7.55;;;;;;;22.65;48.93;99957.16;1645942;87;21122;-76
2021/08/24 07:44:39;;;;;;;9.38;7.37;;;;;;;22.69;48.98;99945.21;1619015;87;21039;-76
2021/08/24 07:47:06;;;;;;;11.15;6.12;;;;;;;22.77;49.08;99945.02;1619905;87;20993;-76
2021/08/24 07:49:38;;;;;;;11.40;6.92;;;;;;;22.83;48.26;99935.49;1646500;87;22593;-75
2021/08/24 07:52:09;;;;;;;9.15;8.08;;;;;;;22.90;48.26;99942.64;1674270;85;21040;-76
2021/08/24 07:54:36;;;;;;;11.95;6.85;;;;;;;23.00;48.24;99943.68;1685246;84;21804;-75
2021/08/24 07:57:03;;;;;;;11.28;6.65;;;;;;;23.08;47.97;99941.47;1637474;86;20980;-75
2021/08/24 07:59:29;;;;;;;8.95;6.30;;;;;;;23.12;47.94;99941.05;1644566;85;21080;-77
2021/08/24 08:01:56;;;;;;;14.47;7.10;;;;;;;23.19;48.62;99945.48;1650932;85;21104;-75
2021/08/24 08:04:28;;;;;;;8.23;6.12;;;;;;;23.24;47.64;99935.70;1673402;85;21107;-75
2021/08/24 08:06:57;;;;;;;7.65;5.95;;;;;;;23.31;47.23;99937.95;1662043;85;21060;-74
2021/08/24 08:09:23;;;;;;;9.43;6.25;;;;;;;23.40;46.72;99940.87;1672720;84;21034;-78
2021/08/24 08:11:50;;;;;;;10.18;7.08;;;;;;;23.48;46.51;99936.54;1680978;85;21084;-75
2021/08/24 08:14:18;;;;;;;6.78;5.95;;;;;;;23.57;46.37;99924.95;1678784;85;20980;-74
2021/08/24 08:16:45;;;;;;;10.15;5.95;;;;;;;23.64;46.12;99927.19;1681355;85;21473;-73
2021/08/24 08:19:11;;;;;;;14.40;6.87;;;;;;;23.71;46.18;99932.95;1674822;85;21161;-74
2021/08/24 08:21:39;;;;;;;14.15;6.33;;;;;;;23.82;45.39;99928.70;1658644;85;20992;-73
2021/08/24 08:24:05;;;;;;;7.75;6.08;;;;;;;23.91;44.16;99932.20;1661623;85;21079;-74
2021/08/24 08:26:32;;;;;;;13.83;5.95;;;;;;;24.01;44.27;99919.45;1661196;85;21086;-73
2021/08/24 08:29:03;;;;;;;9.20;6.50;;;;;;;24.13;44.13;99923.63;1684985;85;21538;-77
2021/08/24 08:31:27;;;;;;;7.25;5.30;;;;;;;24.26;43.59;99918.50;1637733;85;21061;-76
2021/08/24 08:33:56;;;;;;;5.47;4.67;;;;;;;24.35;42.64;99918.42;1681559;85;21000;-74
2021/08/24 08:36:23;;;;;;;12.20;4.75;;;;;;;24.40;42.01;99918.22;1664823;84;21005;-75
2021/08/24 08:38:49;;;;;;;7.70;4.72;;;;;;;24.42;41.76;99921.98;1690688;84;21088;-74
2021/08/24 08:41:37;;;;;;;7.17;5.25;;;;;;;24.44;42.14;99923.28;1690512;84;20961;-73
2021/08/24 08:44:26;;;;;;;8.30;6.25;;;;;;;24.51;42.07;99921.38;1669479;85;21954;-75
2021/08/24 08:47:19;;;;;;;10.23;6.42;;;;;;;24.56;41.90;99918.39;1639793;87;21577;-75
2021/08/24 08:49:57;;;;;;;13.32;5.55;;;;;;;24.60;42.16;99928.98;1694403;84;20964;-74
2021/08/24 08:53:07;;;;;;;7.53;5.12;;;;;;;24.64;42.17;99925.21;1659383;84;21556;-75
2021/08/24 08:55:48;;;;;;;8.50;6.00;;;;;;;24.66;42.52;99921.53;1695871;84;21087;-74
2021/08/24 08:58:43;;;;;;;8.38;5.58;;;;;;;24.70;42.85;99926.59;1674755;84;21069;-76
2021/08/24 09:01:39;;;;;;;12.18;6.10;;;;;;;24.81;43.03;99913.22;1678214;84;21050;-74
2021/08/24 09:04:31;;;;;;;9.30;5.72;;;;;;;24.98;42.73;99912.28;1695814;84;21566;-76
2021/08/24 09:07:00;;;;;;;7.33;5.78;;;;;;;25.11;41.72;99898.77;1675627;84;21101;-75
2021/08/24 09:09:28;;;;;;;10.10;6.00;;;;;;;25.17;41.63;99908.42;1675313;84;21066;-76
2021/08/24 09:11:55;;;;;;;11.18;5.97;;;;;;;25.26;41.76;99901.44;1695632;84;21156;-73
2021/08/24 09:14:36;;;;;;;6.03;4.53;;;;;;;25.34;40.98;99899.95;1695670;84;21000;-73
2021/08/24 09:17:24;;;;;;;7.67;4.70;;;;;;;25.39;40.12;99908.55;1675497;84;20945;-74
2021/08/24 09:20:12;;;;;;;8.50;4.30;;;;;;;25.43;39.82;99903.96;1675450;84;21084;-75
2021/08/24 09:22:40;;;;;;;9.33;4.72;;;;;;;25.47;39.95;99913.14;1696125;84;21053;-76
2021/08/24 09:25:12;;;;;;;12.30;9.53;;;;;;;25.50;39.02;99895.95;1675399;84;21053;-75
2021/08/24 09:28:04;;;;;;;7.17;5.00;;;;;;;25.51;39.13;99896.98;1684826;84;20976;-74
2021/08/24 09:30:32;;;;;;;9.83;5.17;;;;;;;25.58;39.27;99891.72;1695028;84;21075;-74
2021/08/24 09:33:05;;;;;;;9.45;4.83;;;;;;;25.69;38.78;99885.17;1677830;84;21057;-75
2021/08/24 09:35:42;;;;;;;11.55;4.50;;;;;;;25.68;38.46;99886.33;1690612;84;21045;-75
2021/08/24 09:38:18;;;;;;;5.90;4.70;;;;;;;25.72;38.29;99883.67;1696550;84;21123;-74
2021/08/24 09:40:48;;;;;;;11.03;4.25;;;;;;;25.81;37.68;99881.59;1693794;84;20988;-75
2021/08/24 09:43:28;;;;;;;4.72;3.77;;;;;;;25.88;37.78;99890.09;1673907;84;21077;-76
2021/08/24 09:46:13;;;;;;;10.05;6.78;;;;;;;25.92;37.13;99891.00;1668466;84;20932;-74
2021/08/24 09:49:07;;;;;;;6.95;4.20;;;;;;;25.89;37.14;99875.97;1676612;84;21076;-73
2021/08/24 09:51:47;;;;;;;4.20;3.47;;;;;;;25.89;37.56;99872.41;1674039;84;21032;-71
2021/08/24 09:54:33;;;;;;;7.17;4.15;;;;;;;26.01;37.01;99875.94;1635211;86;21642;-81
2021/08/24 09:57:04;;;;;;;6.35;3.52;;;;;;;26.13;36.89;99883.39;1692067;84;20997;-80
2021/08/24 09:59:35;;;;;;;6.50;4.30;;;;;;;26.24;36.79;99889.22;1680267;84;21103;-80
2021/08/24 10:02:03;;;;;;;7.40;4.05;;;;;;;26.30;35.75;99878.18;1677425;84;21053;-81
2021/08/24 10:04:30;;;;;;;6.53;3.58;;;;;;;26.37;35.78;99877.02;1692671;84;22020;-77
2021/08/24 10:07:04;;;;;;;5.90;4.45;;;;;;;26.40;35.54;99867.46;1698622;84;21485;-79
2021/08/24 10:09:36;;;;;;;9.38;4.03;;;;;;;26.48;35.69;99867.88;1681180;84;21507;-82
2021/08/24 10:12:25;;;;;;;7.53;4.45;;;;;;;26.54;35.57;99862.91;1663373;85;20940;-80
2021/08/24 10:14:53;;;;;;;4.55;3.83;;;;;;;26.57;35.41;99865.56;1634105;87;21023;-80
2021/08/24 10:17:34;;;;;;;8.28;3.62;;;;;;;26.56;35.03;99863.37;1675550;84;21067;-77
2021/08/24 10:20:13;;;;;;;6.85;4.22;;;;;;;26.54;35.39;99857.39;1674358;84;21644;-76
2021/08/24 10:22:39;;;;;;;5.40;3.90;;;;;;;26.60;34.88;99862.09;1650492;84;21533;-78
2021/08/24 10:25:09;;;;;;;5.90;3.33;;;;;;;26.64;35.08;99865.16;1692541;84;21021;-80
2021/08/24 10:27:47;;;;;;;6.78;3.80;;;;;;;26.71;34.93;99859.05;1682851;84;21532;-82
2021/08/24 10:30:18;;;;;;;6.12;4.20;;;;;;;26.70;35.18;99848.58;1674979;85;21097;-75
2021/08/24 10:32:50;;;;;;;7.85;3.58;;;;;;;26.78;35.28;99854.51;1668286;84;20977;-75
2021/08/24 10:35:23;;;;;;;6.83;3.40;;;;;;;26.87;34.78;99850.23;1651781;84;21091;-77
2021/08/24 10:37:50;;;;;;;6.28;4.35;;;;;;;26.94;34.64;99849.05;1678331;84;21534;-76
2021/08/24 10:40:30;;;;;;;5.30;4.20;;;;;;;26.95;34.78;99850.66;1676690;84;21044;-79
2021/08/24 10:43:14;;;;;;;17.20;5.40;;;;;;;27.03;34.20;99840.58;1678036;84;22155;-76
2021/08/24 10:46:04;;;;;;;6.20;4.30;;;;;;;27.05;34.11;99844.58;1676173;84;21620;-78
2021/08/24 10:48:34;;;;;;;5.60;3.90;;;;;;;27.10;34.46;99842.93;1667784;84;21038;-78
2021/08/24 10:51:21;;;;;;;4.72;3.65;;;;;;;27.20;33.92;99840.21;1677117;84;21081;-76
2021/08/24 10:54:24;;;;;;;4.28;3.33;;;;;;;27.21;33.86;99839.86;1678042;84;21509;-79
2021/08/24 10:57:05;;;;;;;5.35;3.10;;;;;;;27.27;33.51;99844.55;1678320;84;21328;-77
2021/08/24 11:00:12;;;;;;;3.58;3.15;;;;;;;27.33;33.38;99822.41;1696925;84;25161;-79
2021/08/24 11:03:14;;;;;;;7.90;4.08;;;;;;;27.41;33.37;99826.13;1696688;84;21446;-79
2021/08/24 11:05:52;;;;;;;5.62;3.45;;;;;;;27.51;33.23;99818.70;1677996;84;21525;-77
2021/08/24 11:08:31;;;;;;;8.78;3.17;;;;;;;27.59;32.51;99812.16;1696349;84;21084;-77
2021/08/24 11:11:14;;;;;;;5.70;3.92;;;;;;;27.60;32.53;99817.34;1696509;84;21539;-78
2021/08/24 11:13:50;;;;;;;7.03;4.37;;;;;;;27.69;32.56;99834.52;1696784;84;20924;-77
2021/08/24 11:16:46;;;;;;;4.35;3.37;;;;;;;27.65;32.36;99812.91;1670119;84;20968;-78
2021/08/24 11:20:07;;;;;;;7.55;4.30;;;;;;;27.63;32.49;99824.09;1675835;84;21493;-78
2021/08/24 11:23:24;;;;;;;3.90;2.85;;;;;;;27.64;32.82;99809.12;1676766;84;20997;-79
2021/08/24 11:26:08;;;;;;;4.85;3.22;;;;;;;27.71;32.47;99801.80;1696460;84;21081;-80
2021/08/24 11:29:00;;;;;;;4.55;2.77;;;;;;;27.88;32.19;99804.72;1696590;84;20956;-77
2021/08/24 11:31:34;;;;;;;11.70;3.55;;;;;;;27.95;32.56;99797.97;1678244;84;21474;-78
2021/08/24 11:34:18;;;;;;;4.35;3.08;;;;;;;28.02;32.48;99795.33;1676648;84;21458;-78
2021/08/24 11:36:53;;;;;;;3.92;3.45;;;;;;;28.07;32.26;99803.34;1697011;84;21017;-77
2021/08/24 11:39:46;;;;;;;3.22;2.90;;;;;;;28.12;31.69;99812.77;1697114;84;21218;-79
2021/08/24 11:42:23;;;;;;;3.80;3.50;;;;;;;28.15;31.79;99804.34;1697079;84;20977;-79
2021/08/24 11:44:54;;;;;;;4.20;3.17;;;;;;;28.25;31.65;99805.10;1696631;84;21020;-78
2021/08/24 11:47:38;;;;;;;3.10;2.87;;;;;;;28.32;31.51;99792.80;1696760;84;21005;-78
2021/08/24 11:50:09;;;;;;;4.03;3.10;;;;;;;28.39;31.33;99794.92;1678159;84;21137;-77